Laurier, Washington
Current Conditions -  °F | °C
As of 2:00 PM on Saturday 20 Dec 2014 (Local Time) from CYCG Reporting Station
Light Rain Light Rain  
Wind Chill: 34°   Ceiling: 2000
Heat Index: 34°   Visibility: 4mi
Dew Point: 34°   Wind: 3mph
Humidity: 100%   Direction: 190°S
Pressure: 29.75"   Gusts: NA
Location:  49°N, 118.23°W
Report Text: CYCG 202200Z 19003KT 4SM -RA BR FEW002 FEW010 OVC020 01/01 A2975 RMK SF1SC1SC6 SLP091
Loading
Personal Weather Stations






























Interactive Weather Map New forecast layout! Learn more

10-Day Weather Forecast

Advertisements
Track Severe Weather on mobile